sensor_id;sensor_type;location;lat;lon;timestamp;P1;durP1;ratioP1;P2;durP2;ratioP2
73779;SDS011;62093;37.614;15.072;2023-04-25T00:01:32;4.55;;;2.03;;
73779;SDS011;62093;37.614;15.072;2023-04-25T00:04:00;4.90;;;2.17;;
73779;SDS011;62093;37.614;15.072;2023-04-25T00:06:26;4.20;;;2.10;;
73779;SDS011;62093;37.614;15.072;2023-04-25T00:08:52;4.78;;;2.05;;
73779;SDS011;62093;37.614;15.072;2023-04-25T00:11:19;4.50;;;1.90;;
73779;SDS011;62093;37.614;15.072;2023-04-25T00:13:44;4.72;;;2.10;;
73779;SDS011;62093;37.614;15.072;2023-04-25T00:16:11;4.80;;;2.20;;
73779;SDS011;62093;37.614;15.072;2023-04-25T00:18:41;5.13;;;2.15;;
73779;SDS011;62093;37.614;15.072;2023-04-25T00:21:07;4.63;;;2.20;;
73779;SDS011;62093;37.614;15.072;2023-04-25T00:23:33;5.60;;;2.60;;
73779;SDS011;62093;37.614;15.072;2023-04-25T00:26:00;4.13;;;1.85;;
73779;SDS011;62093;37.614;15.072;2023-04-25T00:28:26;4.60;;;2.07;;
73779;SDS011;62093;37.614;15.072;2023-04-25T00:30:52;4.85;;;2.13;;
73779;SDS011;62093;37.614;15.072;2023-04-25T00:33:18;5.07;;;2.30;;
73779;SDS011;62093;37.614;15.072;2023-04-25T00:35:44;4.33;;;2.03;;
73779;SDS011;62093;37.614;15.072;2023-04-25T00:38:10;4.85;;;2.20;;
73779;SDS011;62093;37.614;15.072;2023-04-25T00:40:36;5.05;;;2.28;;
73779;SDS011;62093;37.614;15.072;2023-04-25T00:43:01;4.37;;;2.03;;
73779;SDS011;62093;37.614;15.072;2023-04-25T00:45:28;5.13;;;2.10;;
73779;SDS011;62093;37.614;15.072;2023-04-25T00:47:54;4.60;;;1.98;;
73779;SDS011;62093;37.614;15.072;2023-04-25T00:50:21;5.35;;;2.17;;
73779;SDS011;62093;37.614;15.072;2023-04-25T00:52:48;4.90;;;2.10;;
73779;SDS011;62093;37.614;15.072;2023-04-25T00:55:14;4.53;;;2.10;;
73779;SDS011;62093;37.614;15.072;2023-04-25T00:57:41;4.72;;;2.10;;
73779;SDS011;62093;37.614;15.072;2023-04-25T01:00:07;4.53;;;1.85;;
73779;SDS011;62093;37.614;15.072;2023-04-25T01:02:39;5.35;;;2.53;;
73779;SDS011;62093;37.614;15.072;2023-04-25T01:05:07;5.68;;;2.13;;
73779;SDS011;62093;37.614;15.072;2023-04-25T01:07:34;4.97;;;2.10;;
73779;SDS011;62093;37.614;15.072;2023-04-25T01:10:01;4.80;;;2.40;;
73779;SDS011;62093;37.614;15.072;2023-04-25T01:12:27;4.85;;;2.13;;
73779;SDS011;62093;37.614;15.072;2023-04-25T01:14:54;5.00;;;2.25;;
73779;SDS011;62093;37.614;15.072;2023-04-25T01:17:20;5.20;;;2.42;;
73779;SDS011;62093;37.614;15.072;2023-04-25T01:19:46;4.83;;;1.93;;
73779;SDS011;62093;37.614;15.072;2023-04-25T01:22:14;5.15;;;2.50;;
73779;SDS011;62093;37.614;15.072;2023-04-25T01:24:40;4.40;;;2.35;;
73779;SDS011;62093;37.614;15.072;2023-04-25T01:27:07;4.93;;;2.22;;
73779;SDS011;62093;37.614;15.072;2023-04-25T01:29:36;5.70;;;2.40;;
73779;SDS011;62093;37.614;15.072;2023-04-25T01:32:02;4.35;;;1.98;;
73779;SDS011;62093;37.614;15.072;2023-04-25T01:34:28;4.93;;;2.35;;
73779;SDS011;62093;37.614;15.072;2023-04-25T01:36:57;4.88;;;2.00;;
73779;SDS011;62093;37.614;15.072;2023-04-25T01:39:25;5.95;;;2.45;;
73779;SDS011;62093;37.614;15.072;2023-04-25T01:41:51;5.10;;;2.20;;
73779;SDS011;62093;37.614;15.072;2023-04-25T01:44:17;5.25;;;2.40;;
73779;SDS011;62093;37.614;15.072;2023-04-25T01:46:43;5.30;;;2.20;;
73779;SDS011;62093;37.614;15.072;2023-04-25T01:49:10;5.53;;;2.10;;
73779;SDS011;62093;37.614;15.072;2023-04-25T01:51:36;4.78;;;2.13;;
73779;SDS011;62093;37.614;15.072;2023-04-25T01:54:03;5.23;;;2.53;;
73779;SDS011;62093;37.614;15.072;2023-04-25T01:56:32;4.63;;;2.05;;
73779;SDS011;62093;37.614;15.072;2023-04-25T01:58:59;5.55;;;2.35;;
73779;SDS011;62093;37.614;15.072;2023-04-25T02:01:34;4.68;;;2.20;;
73779;SDS011;62093;37.614;15.072;2023-04-25T02:04:14;5.18;;;2.30;;
73779;SDS011;62093;37.614;15.072;2023-04-25T02:06:40;5.17;;;2.43;;
73779;SDS011;62093;37.614;15.072;2023-04-25T02:09:06;4.63;;;2.35;;
73779;SDS011;62093;37.614;15.072;2023-04-25T02:11:32;4.80;;;2.10;;
73779;SDS011;62093;37.614;15.072;2023-04-25T02:14:30;4.65;;;2.40;;
73779;SDS011;62093;37.614;15.072;2023-04-25T02:17:04;4.63;;;2.10;;
73779;SDS011;62093;37.614;15.072;2023-04-25T02:19:31;4.97;;;2.30;;
73779;SDS011;62093;37.614;15.072;2023-04-25T02:21:57;5.13;;;2.17;;
73779;SDS011;62093;37.614;15.072;2023-04-25T02:24:23;4.70;;;2.50;;
73779;SDS011;62093;37.614;15.072;2023-04-25T02:26:49;4.30;;;2.03;;
73779;SDS011;62093;37.614;15.072;2023-04-25T02:29:16;4.50;;;2.20;;
73779;SDS011;62093;37.614;15.072;2023-04-25T02:31:42;5.18;;;2.30;;
73779;SDS011;62093;37.614;15.072;2023-04-25T02:34:07;4.97;;;2.20;;
73779;SDS011;62093;37.614;15.072;2023-04-25T02:36:36;4.95;;;2.40;;
73779;SDS011;62093;37.614;15.072;2023-04-25T02:39:02;4.47;;;2.13;;
73779;SDS011;62093;37.614;15.072;2023-04-25T02:41:28;5.00;;;2.30;;
73779;SDS011;62093;37.614;15.072;2023-04-25T02:43:54;4.85;;;2.30;;
73779;SDS011;62093;37.614;15.072;2023-04-25T02:46:20;6.63;;;3.00;;
73779;SDS011;62093;37.614;15.072;2023-04-25T02:48:46;6.17;;;2.67;;
73779;SDS011;62093;37.614;15.072;2023-04-25T02:51:12;4.90;;;2.00;;
73779;SDS011;62093;37.614;15.072;2023-04-25T02:53:38;5.38;;;2.40;;
73779;SDS011;62093;37.614;15.072;2023-04-25T02:56:04;5.37;;;2.50;;
73779;SDS011;62093;37.614;15.072;2023-04-25T02:58:30;5.55;;;2.13;;
73779;SDS011;62093;37.614;15.072;2023-04-25T03:00:56;4.83;;;2.30;;
73779;SDS011;62093;37.614;15.072;2023-04-25T03:03:22;4.90;;;2.20;;
73779;SDS011;62093;37.614;15.072;2023-04-25T03:05:49;4.97;;;2.25;;
73779;SDS011;62093;37.614;15.072;2023-04-25T03:08:19;4.80;;;2.50;;
73779;SDS011;62093;37.614;15.072;2023-04-25T03:10:45;4.75;;;2.10;;
73779;SDS011;62093;37.614;15.072;2023-04-25T03:13:13;4.87;;;2.10;;
73779;SDS011;62093;37.614;15.072;2023-04-25T03:15:41;5.00;;;2.35;;
73779;SDS011;62093;37.614;15.072;2023-04-25T03:18:07;4.60;;;2.38;;
73779;SDS011;62093;37.614;15.072;2023-04-25T03:20:33;5.20;;;2.55;;
73779;SDS011;62093;37.614;15.072;2023-04-25T03:22:59;4.67;;;2.53;;
73779;SDS011;62093;37.614;15.072;2023-04-25T03:25:27;5.40;;;2.63;;
73779;SDS011;62093;37.614;15.072;2023-04-25T03:27:52;4.75;;;2.45;;
73779;SDS011;62093;37.614;15.072;2023-04-25T03:30:18;4.47;;;2.20;;
73779;SDS011;62093;37.614;15.072;2023-04-25T03:32:44;4.50;;;2.20;;
73779;SDS011;62093;37.614;15.072;2023-04-25T03:35:14;4.70;;;2.28;;
73779;SDS011;62093;37.614;15.072;2023-04-25T03:37:40;5.00;;;2.58;;
73779;SDS011;62093;37.614;15.072;2023-04-25T03:40:12;5.87;;;2.47;;
73779;SDS011;62093;37.614;15.072;2023-04-25T03:42:56;4.32;;;2.00;;
73779;SDS011;62093;37.614;15.072;2023-04-25T03:45:22;5.10;;;2.20;;
73779;SDS011;62093;37.614;15.072;2023-04-25T03:47:48;5.20;;;2.70;;
73779;SDS011;62093;37.614;15.072;2023-04-25T03:50:14;4.57;;;2.10;;
73779;SDS011;62093;37.614;15.072;2023-04-25T03:52:40;4.87;;;2.20;;
73779;SDS011;62093;37.614;15.072;2023-04-25T03:55:07;4.60;;;2.42;;
73779;SDS011;62093;37.614;15.072;2023-04-25T03:57:34;4.80;;;2.35;;
73779;SDS011;62093;37.614;15.072;2023-04-25T04:00:00;4.50;;;2.20;;
73779;SDS011;62093;37.614;15.072;2023-04-25T04:02:28;5.10;;;2.40;;
73779;SDS011;62093;37.614;15.072;2023-04-25T04:04:55;5.18;;;2.00;;
73779;SDS011;62093;37.614;15.072;2023-04-25T04:07:21;5.05;;;2.35;;
73779;SDS011;62093;37.614;15.072;2023-04-25T04:09:53;5.13;;;2.35;;
73779;SDS011;62093;37.614;15.072;2023-04-25T04:12:25;5.00;;;2.50;;
73779;SDS011;62093;37.614;15.072;2023-04-25T04:14:51;4.40;;;2.17;;
73779;SDS011;62093;37.614;15.072;2023-04-25T04:17:17;5.00;;;2.20;;
73779;SDS011;62093;37.614;15.072;2023-04-25T04:19:43;4.32;;;2.17;;
73779;SDS011;62093;37.614;15.072;2023-04-25T04:22:17;5.30;;;2.47;;
73779;SDS011;62093;37.614;15.072;2023-04-25T04:24:43;4.60;;;2.03;;
73779;SDS011;62093;37.614;15.072;2023-04-25T04:27:10;4.30;;;2.40;;
73779;SDS011;62093;37.614;15.072;2023-04-25T04:29:48;4.68;;;2.13;;
73779;SDS011;62093;37.614;15.072;2023-04-25T04:32:32;4.70;;;2.33;;
73779;SDS011;62093;37.614;15.072;2023-04-25T04:35:00;4.78;;;2.03;;
73779;SDS011;62093;37.614;15.072;2023-04-25T04:37:26;4.47;;;2.00;;
73779;SDS011;62093;37.614;15.072;2023-04-25T04:39:52;4.97;;;2.30;;
73779;SDS011;62093;37.614;15.072;2023-04-25T04:42:44;4.63;;;2.03;;
73779;SDS011;62093;37.614;15.072;2023-04-25T04:45:36;4.90;;;2.20;;
73779;SDS011;62093;37.614;15.072;2023-04-25T04:48:11;4.87;;;2.30;;
73779;SDS011;62093;37.614;15.072;2023-04-25T04:50:58;4.78;;;2.60;;
73779;SDS011;62093;37.614;15.072;2023-04-25T04:53:43;4.32;;;2.10;;
73779;SDS011;62093;37.614;15.072;2023-04-25T04:56:22;4.40;;;1.98;;
73779;SDS011;62093;37.614;15.072;2023-04-25T04:59:24;4.45;;;2.03;;
73779;SDS011;62093;37.614;15.072;2023-04-25T05:01:59;4.07;;;2.00;;
73779;SDS011;62093;37.614;15.072;2023-04-25T05:04:43;4.75;;;2.17;;
73779;SDS011;62093;37.614;15.072;2023-04-25T05:07:27;5.55;;;2.20;;
73779;SDS011;62093;37.614;15.072;2023-04-25T05:10:22;5.18;;;2.33;;
73779;SDS011;62093;37.614;15.072;2023-04-25T05:13:03;4.95;;;2.10;;
73779;SDS011;62093;37.614;15.072;2023-04-25T05:15:57;4.20;;;1.90;;
73779;SDS011;62093;37.614;15.072;2023-04-25T05:18:46;4.47;;;2.17;;
73779;SDS011;62093;37.614;15.072;2023-04-25T05:21:27;5.18;;;2.13;;
73779;SDS011;62093;37.614;15.072;2023-04-25T05:24:06;4.80;;;2.10;;
73779;SDS011;62093;37.614;15.072;2023-04-25T05:26:50;5.32;;;2.33;;
73779;SDS011;62093;37.614;15.072;2023-04-25T05:29:42;7.03;;;2.60;;
73779;SDS011;62093;37.614;15.072;2023-04-25T05:32:24;4.57;;;2.15;;
73779;SDS011;62093;37.614;15.072;2023-04-25T05:34:50;5.05;;;2.30;;
73779;SDS011;62093;37.614;15.072;2023-04-25T05:37:24;4.63;;;2.17;;
73779;SDS011;62093;37.614;15.072;2023-04-25T05:40:04;5.13;;;2.60;;
73779;SDS011;62093;37.614;15.072;2023-04-25T05:42:50;4.93;;;2.07;;
73779;SDS011;62093;37.614;15.072;2023-04-25T05:45:55;4.65;;;2.30;;
73779;SDS011;62093;37.614;15.072;2023-04-25T05:48:49;4.57;;;2.08;;
73779;SDS011;62093;37.614;15.072;2023-04-25T05:51:41;4.13;;;2.03;;
73779;SDS011;62093;37.614;15.072;2023-04-25T05:54:30;4.63;;;1.92;;
73779;SDS011;62093;37.614;15.072;2023-04-25T05:56:56;4.63;;;2.17;;
73779;SDS011;62093;37.614;15.072;2023-04-25T05:59:23;4.07;;;2.03;;
73779;SDS011;62093;37.614;15.072;2023-04-25T06:01:48;5.05;;;2.20;;
73779;SDS011;62093;37.614;15.072;2023-04-25T06:04:14;4.45;;;2.28;;
73779;SDS011;62093;37.614;15.072;2023-04-25T06:06:40;4.77;;;2.20;;
73779;SDS011;62093;37.614;15.072;2023-04-25T06:09:06;4.75;;;2.20;;
73779;SDS011;62093;37.614;15.072;2023-04-25T06:11:32;4.50;;;2.37;;
73779;SDS011;62093;37.614;15.072;2023-04-25T06:13:58;4.33;;;1.93;;
73779;SDS011;62093;37.614;15.072;2023-04-25T06:16:24;5.10;;;2.33;;
73779;SDS011;62093;37.614;15.072;2023-04-25T06:18:51;4.90;;;2.15;;
73779;SDS011;62093;37.614;15.072;2023-04-25T06:21:17;4.72;;;2.22;;
73779;SDS011;62093;37.614;15.072;2023-04-25T06:23:43;4.50;;;2.03;;
73779;SDS011;62093;37.614;15.072;2023-04-25T06:26:11;4.20;;;2.08;;
73779;SDS011;62093;37.614;15.072;2023-04-25T06:28:41;5.10;;;2.15;;
73779;SDS011;62093;37.614;15.072;2023-04-25T06:31:08;5.88;;;2.30;;
73779;SDS011;62093;37.614;15.072;2023-04-25T06:33:34;5.53;;;2.30;;
73779;SDS011;62093;37.614;15.072;2023-04-25T06:36:02;4.32;;;2.28;;
73779;SDS011;62093;37.614;15.072;2023-04-25T06:38:28;4.85;;;2.20;;
73779;SDS011;62093;37.614;15.072;2023-04-25T06:40:56;4.88;;;2.30;;
73779;SDS011;62093;37.614;15.072;2023-04-25T06:43:22;5.10;;;2.33;;
73779;SDS011;62093;37.614;15.072;2023-04-25T06:46:02;5.37;;;2.10;;
73779;SDS011;62093;37.614;15.072;2023-04-25T06:48:31;4.80;;;2.00;;
73779;SDS011;62093;37.614;15.072;2023-04-25T06:50:58;5.28;;;2.38;;
73779;SDS011;62093;37.614;15.072;2023-04-25T06:53:25;4.40;;;2.15;;
73779;SDS011;62093;37.614;15.072;2023-04-25T06:55:57;4.47;;;2.08;;
73779;SDS011;62093;37.614;15.072;2023-04-25T06:58:27;4.37;;;1.90;;
73779;SDS011;62093;37.614;15.072;2023-04-25T07:00:53;4.80;;;2.20;;
73779;SDS011;62093;37.614;15.072;2023-04-25T07:03:21;5.53;;;2.03;;
73779;SDS011;62093;37.614;15.072;2023-04-25T07:05:48;5.18;;;2.50;;
73779;SDS011;62093;37.614;15.072;2023-04-25T07:08:15;5.33;;;2.33;;
73779;SDS011;62093;37.614;15.072;2023-04-25T07:10:41;5.13;;;1.90;;
73779;SDS011;62093;37.614;15.072;2023-04-25T07:13:07;4.45;;;1.98;;
73779;SDS011;62093;37.614;15.072;2023-04-25T07:15:33;4.60;;;2.20;;
73779;SDS011;62093;37.614;15.072;2023-04-25T07:18:00;4.73;;;2.07;;
73779;SDS011;62093;37.614;15.072;2023-04-25T07:20:26;4.72;;;2.10;;
73779;SDS011;62093;37.614;15.072;2023-04-25T07:22:53;5.15;;;2.35;;
73779;SDS011;62093;37.614;15.072;2023-04-25T07:25:19;4.13;;;2.00;;
73779;SDS011;62093;37.614;15.072;2023-04-25T07:27:45;4.82;;;2.25;;
73779;SDS011;62093;37.614;15.072;2023-04-25T07:30:15;4.13;;;1.87;;
73779;SDS011;62093;37.614;15.072;2023-04-25T07:32:40;5.40;;;2.30;;
73779;SDS011;62093;37.614;15.072;2023-04-25T07:35:07;4.40;;;2.17;;
73779;SDS011;62093;37.614;15.072;2023-04-25T07:37:34;5.00;;;2.13;;
73779;SDS011;62093;37.614;15.072;2023-04-25T07:40:07;4.38;;;1.83;;
73779;SDS011;62093;37.614;15.072;2023-04-25T07:42:35;4.20;;;2.00;;
73779;SDS011;62093;37.614;15.072;2023-04-25T07:45:03;4.65;;;2.17;;
73779;SDS011;62093;37.614;15.072;2023-04-25T07:47:29;4.70;;;1.85;;
73779;SDS011;62093;37.614;15.072;2023-04-25T07:49:55;4.80;;;1.90;;
73779;SDS011;62093;37.614;15.072;2023-04-25T07:52:23;4.30;;;2.05;;
73779;SDS011;62093;37.614;15.072;2023-04-25T07:54:55;4.50;;;2.10;;
73779;SDS011;62093;37.614;15.072;2023-04-25T07:57:32;4.75;;;2.20;;
73779;SDS011;62093;37.614;15.072;2023-04-25T07:59:58;5.13;;;2.25;;
73779;SDS011;62093;37.614;15.072;2023-04-25T08:02:25;4.33;;;2.03;;
73779;SDS011;62093;37.614;15.072;2023-04-25T08:04:54;4.60;;;2.35;;
73779;SDS011;62093;37.614;15.072;2023-04-25T08:07:20;4.40;;;2.20;;
73779;SDS011;62093;37.614;15.072;2023-04-25T08:09:53;5.55;;;2.10;;
73779;SDS011;62093;37.614;15.072;2023-04-25T08:12:28;4.82;;;2.10;;
73779;SDS011;62093;37.614;15.072;2023-04-25T08:14:58;5.10;;;1.90;;
73779;SDS011;62093;37.614;15.072;2023-04-25T08:17:27;4.68;;;2.20;;
73779;SDS011;62093;37.614;15.072;2023-04-25T08:19:56;4.75;;;2.10;;
73779;SDS011;62093;37.614;15.072;2023-04-25T08:22:28;4.00;;;1.60;;
73779;SDS011;62093;37.614;15.072;2023-04-25T08:25:11;4.45;;;1.90;;
73779;SDS011;62093;37.614;15.072;2023-04-25T08:27:38;4.13;;;1.77;;
73779;SDS011;62093;37.614;15.072;2023-04-25T08:30:04;4.43;;;1.80;;
73779;SDS011;62093;37.614;15.072;2023-04-25T08:32:31;4.45;;;1.90;;
73779;SDS011;62093;37.614;15.072;2023-04-25T08:35:20;4.18;;;1.60;;
73779;SDS011;62093;37.614;15.072;2023-04-25T08:37:46;4.15;;;1.55;;
73779;SDS011;62093;37.614;15.072;2023-04-25T08:40:14;4.60;;;2.17;;
73779;SDS011;62093;37.614;15.072;2023-04-25T08:42:44;3.75;;;1.52;;
73779;SDS011;62093;37.614;15.072;2023-04-25T08:45:12;4.10;;;1.67;;
73779;SDS011;62093;37.614;15.072;2023-04-25T08:47:41;4.38;;;1.70;;
73779;SDS011;62093;37.614;15.072;2023-04-25T08:50:09;4.20;;;1.90;;
73779;SDS011;62093;37.614;15.072;2023-04-25T08:52:37;4.37;;;2.00;;
73779;SDS011;62093;37.614;15.072;2023-04-25T08:55:06;4.55;;;2.00;;
73779;SDS011;62093;37.614;15.072;2023-04-25T08:57:34;4.30;;;1.95;;
73779;SDS011;62093;37.614;15.072;2023-04-25T09:00:01;4.50;;;2.30;;
73779;SDS011;62093;37.614;15.072;2023-04-25T09:02:27;4.25;;;1.77;;
73779;SDS011;62093;37.614;15.072;2023-04-25T09:04:53;4.40;;;2.10;;
73779;SDS011;62093;37.614;15.072;2023-04-25T09:07:20;4.43;;;2.20;;
73779;SDS011;62093;37.614;15.072;2023-04-25T09:09:47;4.20;;;1.80;;
73779;SDS011;62093;37.614;15.072;2023-04-25T09:12:18;4.75;;;1.90;;
73779;SDS011;62093;37.614;15.072;2023-04-25T09:15:02;4.70;;;1.90;;
73779;SDS011;62093;37.614;15.072;2023-04-25T09:17:56;4.00;;;1.80;;
73779;SDS011;62093;37.614;15.072;2023-04-25T09:20:24;4.28;;;1.83;;
73779;SDS011;62093;37.614;15.072;2023-04-25T09:23:00;3.90;;;1.70;;
73779;SDS011;62093;37.614;15.072;2023-04-25T09:25:36;4.45;;;1.85;;
73779;SDS011;62093;37.614;15.072;2023-04-25T09:28:06;5.10;;;2.17;;
73779;SDS011;62093;37.614;15.072;2023-04-25T09:30:33;4.10;;;1.88;;
73779;SDS011;62093;37.614;15.072;2023-04-25T09:33:32;4.00;;;1.67;;
73779;SDS011;62093;37.614;15.072;2023-04-25T09:36:09;5.05;;;1.90;;
73779;SDS011;62093;37.614;15.072;2023-04-25T09:38:58;4.00;;;1.67;;
73779;SDS011;62093;37.614;15.072;2023-04-25T09:41:32;4.20;;;1.87;;
73779;SDS011;62093;37.614;15.072;2023-04-25T09:44:03;4.95;;;1.90;;
73779;SDS011;62093;37.614;15.072;2023-04-25T09:46:35;3.97;;;1.55;;
73779;SDS011;62093;37.614;15.072;2023-04-25T09:49:22;4.20;;;1.73;;
73779;SDS011;62093;37.614;15.072;2023-04-25T09:52:04;4.70;;;2.10;;
73779;SDS011;62093;37.614;15.072;2023-04-25T09:54:37;4.50;;;1.77;;
73779;SDS011;62093;37.614;15.072;2023-04-25T09:57:13;4.15;;;1.65;;
73779;SDS011;62093;37.614;15.072;2023-04-25T09:59:47;4.68;;;2.25;;
73779;SDS011;62093;37.614;15.072;2023-04-25T10:02:29;4.18;;;1.55;;
73779;SDS011;62093;37.614;15.072;2023-04-25T10:05:05;4.20;;;1.90;;
73779;SDS011;62093;37.614;15.072;2023-04-25T10:07:37;4.70;;;1.80;;
73779;SDS011;62093;37.614;15.072;2023-04-25T10:10:08;4.72;;;1.80;;
73779;SDS011;62093;37.614;15.072;2023-04-25T10:12:34;4.30;;;2.15;;
73779;SDS011;62093;37.614;15.072;2023-04-25T10:15:02;4.90;;;2.10;;
73779;SDS011;62093;37.614;15.072;2023-04-25T10:17:29;4.50;;;2.00;;
73779;SDS011;62093;37.614;15.072;2023-04-25T10:19:56;4.73;;;1.87;;
73779;SDS011;62093;37.614;15.072;2023-04-25T10:22:29;4.40;;;1.80;;
73779;SDS011;62093;37.614;15.072;2023-04-25T10:24:58;5.05;;;2.20;;
73779;SDS011;62093;37.614;15.072;2023-04-25T10:27:26;4.40;;;2.22;;
73779;SDS011;62093;37.614;15.072;2023-04-25T10:32:31;4.33;;;2.00;;
73779;SDS011;62093;37.614;15.072;2023-04-25T10:35:16;4.22;;;1.75;;
73779;SDS011;62093;37.614;15.072;2023-04-25T10:38:02;4.63;;;2.15;;
73779;SDS011;62093;37.614;15.072;2023-04-25T10:40:32;4.25;;;1.88;;
73779;SDS011;62093;37.614;15.072;2023-04-25T10:48:50;4.40;;;1.98;;
73779;SDS011;62093;37.614;15.072;2023-04-25T10:51:22;4.78;;;2.15;;
73779;SDS011;62093;37.614;15.072;2023-04-25T10:56:25;4.90;;;2.17;;
73779;SDS011;62093;37.614;15.072;2023-04-25T10:59:14;4.13;;;1.80;;
73779;SDS011;62093;37.614;15.072;2023-04-25T11:01:40;5.00;;;2.10;;
73779;SDS011;62093;37.614;15.072;2023-04-25T11:04:20;4.22;;;2.05;;
73779;SDS011;62093;37.614;15.072;2023-04-25T11:09:38;4.63;;;2.10;;
73779;SDS011;62093;37.614;15.072;2023-04-25T11:12:07;5.23;;;2.03;;
73779;SDS011;62093;37.614;15.072;2023-04-25T11:14:34;4.68;;;2.03;;
73779;SDS011;62093;37.614;15.072;2023-04-25T11:17:01;4.55;;;2.35;;
73779;SDS011;62093;37.614;15.072;2023-04-25T11:19:28;4.30;;;2.00;;
73779;SDS011;62093;37.614;15.072;2023-04-25T11:21:57;4.63;;;2.10;;
73779;SDS011;62093;37.614;15.072;2023-04-25T11:24:28;4.50;;;2.03;;
73779;SDS011;62093;37.614;15.072;2023-04-25T11:27:00;4.65;;;1.70;;
73779;SDS011;62093;37.614;15.072;2023-04-25T11:29:30;4.15;;;2.08;;
73779;SDS011;62093;37.614;15.072;2023-04-25T11:31:57;4.53;;;2.03;;
73779;SDS011;62093;37.614;15.072;2023-04-25T11:34:27;4.70;;;1.75;;
73779;SDS011;62093;37.614;15.072;2023-04-25T11:36:56;5.13;;;1.90;;
73779;SDS011;62093;37.614;15.072;2023-04-25T11:39:26;4.53;;;1.73;;
73779;SDS011;62093;37.614;15.072;2023-04-25T11:41:52;4.57;;;1.80;;
73779;SDS011;62093;37.614;15.072;2023-04-25T11:44:19;4.10;;;1.90;;
73779;SDS011;62093;37.614;15.072;2023-04-25T11:46:46;4.43;;;1.85;;
73779;SDS011;62093;37.614;15.072;2023-04-25T11:49:12;4.20;;;1.90;;
73779;SDS011;62093;37.614;15.072;2023-04-25T11:51:39;4.45;;;2.10;;
73779;SDS011;62093;37.614;15.072;2023-04-25T11:54:10;4.32;;;1.77;;
73779;SDS011;62093;37.614;15.072;2023-04-25T11:56:37;4.43;;;2.15;;
73779;SDS011;62093;37.614;15.072;2023-04-25T11:59:06;4.82;;;2.13;;
73779;SDS011;62093;37.614;15.072;2023-04-25T12:01:33;4.57;;;2.20;;
73779;SDS011;62093;37.614;15.072;2023-04-25T12:04:18;5.20;;;2.08;;
73779;SDS011;62093;37.614;15.072;2023-04-25T12:06:46;4.30;;;2.03;;
73779;SDS011;62093;37.614;15.072;2023-04-25T12:09:13;4.57;;;1.92;;
73779;SDS011;62093;37.614;15.072;2023-04-25T12:11:43;3.80;;;1.70;;
73779;SDS011;62093;37.614;15.072;2023-04-25T12:14:11;4.97;;;2.13;;
73779;SDS011;62093;37.614;15.072;2023-04-25T12:16:45;4.25;;;2.00;;
73779;SDS011;62093;37.614;15.072;2023-04-25T12:19:15;4.00;;;1.73;;
73779;SDS011;62093;37.614;15.072;2023-04-25T12:21:42;4.90;;;1.88;;
73779;SDS011;62093;37.614;15.072;2023-04-25T12:24:20;4.73;;;2.10;;
73779;SDS011;62093;37.614;15.072;2023-04-25T12:26:50;4.10;;;1.73;;
73779;SDS011;62093;37.614;15.072;2023-04-25T12:29:22;4.43;;;1.85;;
73779;SDS011;62093;37.614;15.072;2023-04-25T12:31:50;4.53;;;2.00;;
73779;SDS011;62093;37.614;15.072;2023-04-25T12:34:18;4.32;;;1.63;;
73779;SDS011;62093;37.614;15.072;2023-04-25T12:36:47;4.70;;;1.97;;
73779;SDS011;62093;37.614;15.072;2023-04-25T12:39:14;4.90;;;1.85;;
73779;SDS011;62093;37.614;15.072;2023-04-25T12:41:41;4.28;;;2.05;;
73779;SDS011;62093;37.614;15.072;2023-04-25T12:44:07;5.32;;;1.65;;
73779;SDS011;62093;37.614;15.072;2023-04-25T12:46:33;4.83;;;2.03;;
73779;SDS011;62093;37.614;15.072;2023-04-25T12:48:58;4.20;;;1.95;;
73779;SDS011;62093;37.614;15.072;2023-04-25T12:51:25;5.07;;;1.90;;
73779;SDS011;62093;37.614;15.072;2023-04-25T12:53:53;4.10;;;1.80;;
73779;SDS011;62093;37.614;15.072;2023-04-25T12:56:19;4.50;;;1.90;;
73779;SDS011;62093;37.614;15.072;2023-04-25T12:58:45;4.20;;;1.67;;
73779;SDS011;62093;37.614;15.072;2023-04-25T13:01:11;4.22;;;1.42;;
73779;SDS011;62093;37.614;15.072;2023-04-25T13:03:39;4.63;;;1.77;;
73779;SDS011;62093;37.614;15.072;2023-04-25T13:06:06;4.43;;;1.80;;
73779;SDS011;62093;37.614;15.072;2023-04-25T13:08:32;4.38;;;1.80;;
73779;SDS011;62093;37.614;15.072;2023-04-25T13:10:58;4.47;;;1.92;;
73779;SDS011;62093;37.614;15.072;2023-04-25T13:13:25;4.47;;;1.80;;
73779;SDS011;62093;37.614;15.072;2023-04-25T13:15:52;5.03;;;1.90;;
73779;SDS011;62093;37.614;15.072;2023-04-25T13:18:18;4.50;;;1.90;;
73779;SDS011;62093;37.614;15.072;2023-04-25T13:20:44;3.83;;;1.73;;
73779;SDS011;62093;37.614;15.072;2023-04-25T13:23:11;4.15;;;1.60;;
73779;SDS011;62093;37.614;15.072;2023-04-25T13:25:37;4.40;;;1.52;;
73779;SDS011;62093;37.614;15.072;2023-04-25T13:28:03;3.80;;;1.60;;
73779;SDS011;62093;37.614;15.072;2023-04-25T13:30:29;4.87;;;1.63;;
73779;SDS011;62093;37.614;15.072;2023-04-25T13:32:55;4.22;;;1.60;;
73779;SDS011;62093;37.614;15.072;2023-04-25T13:35:22;3.80;;;1.50;;
73779;SDS011;62093;37.614;15.072;2023-04-25T13:37:48;3.92;;;1.80;;
73779;SDS011;62093;37.614;15.072;2023-04-25T13:40:15;4.47;;;1.60;;
73779;SDS011;62093;37.614;15.072;2023-04-25T13:42:41;4.35;;;1.77;;
73779;SDS011;62093;37.614;15.072;2023-04-25T13:45:09;4.55;;;1.70;;
73779;SDS011;62093;37.614;15.072;2023-04-25T13:47:35;4.70;;;1.70;;
73779;SDS011;62093;37.614;15.072;2023-04-25T13:50:01;5.00;;;1.70;;
73779;SDS011;62093;37.614;15.072;2023-04-25T13:52:29;4.00;;;1.65;;
73779;SDS011;62093;37.614;15.072;2023-04-25T13:54:54;4.15;;;1.73;;
73779;SDS011;62093;37.614;15.072;2023-04-25T13:57:21;3.85;;;1.70;;
73779;SDS011;62093;37.614;15.072;2023-04-25T13:59:47;3.93;;;1.70;;
73779;SDS011;62093;37.614;15.072;2023-04-25T14:02:13;4.10;;;1.70;;
73779;SDS011;62093;37.614;15.072;2023-04-25T14:04:39;5.07;;;1.60;;
73779;SDS011;62093;37.614;15.072;2023-04-25T14:07:05;4.20;;;1.60;;
73779;SDS011;62093;37.614;15.072;2023-04-25T14:09:31;4.00;;;1.60;;
73779;SDS011;62093;37.614;15.072;2023-04-25T14:11:58;4.80;;;1.67;;
73779;SDS011;62093;37.614;15.072;2023-04-25T14:14:24;4.10;;;1.80;;
73779;SDS011;62093;37.614;15.072;2023-04-25T14:16:51;4.45;;;1.60;;
73779;SDS011;62093;37.614;15.072;2023-04-25T14:19:20;4.15;;;1.52;;
73779;SDS011;62093;37.614;15.072;2023-04-25T14:21:46;5.15;;;1.77;;
73779;SDS011;62093;37.614;15.072;2023-04-25T14:24:13;4.30;;;1.90;;
73779;SDS011;62093;37.614;15.072;2023-04-25T14:26:39;3.70;;;1.53;;
73779;SDS011;62093;37.614;15.072;2023-04-25T14:29:06;3.90;;;1.60;;
73779;SDS011;62093;37.614;15.072;2023-04-25T14:31:34;4.28;;;1.63;;
73779;SDS011;62093;37.614;15.072;2023-04-25T14:34:01;5.63;;;1.92;;
73779;SDS011;62093;37.614;15.072;2023-04-25T14:36:28;4.75;;;1.58;;
73779;SDS011;62093;37.614;15.072;2023-04-25T14:38:54;4.07;;;1.30;;
73779;SDS011;62093;37.614;15.072;2023-04-25T14:41:20;3.75;;;1.40;;
73779;SDS011;62093;37.614;15.072;2023-04-25T14:43:46;4.15;;;1.40;;
73779;SDS011;62093;37.614;15.072;2023-04-25T14:46:12;4.65;;;1.50;;
73779;SDS011;62093;37.614;15.072;2023-04-25T14:48:38;4.67;;;1.50;;
73779;SDS011;62093;37.614;15.072;2023-04-25T14:51:04;4.00;;;1.55;;
73779;SDS011;62093;37.614;15.072;2023-04-25T14:53:30;4.00;;;1.40;;
73779;SDS011;62093;37.614;15.072;2023-04-25T14:55:57;4.20;;;1.42;;
73779;SDS011;62093;37.614;15.072;2023-04-25T14:58:23;3.53;;;1.30;;
73779;SDS011;62093;37.614;15.072;2023-04-25T15:00:49;4.17;;;1.50;;
73779;SDS011;62093;37.614;15.072;2023-04-25T15:03:16;4.15;;;1.20;;